createdAt,value
2018-11-29T00:00:42.390Z,20.50
2018-11-29T00:05:45.536Z,20.50
2018-11-29T00:10:48.691Z,20.60
2018-11-29T00:15:51.835Z,20.60
2018-11-29T00:20:54.947Z,20.60
2018-11-29T00:25:58.099Z,20.60
2018-11-29T00:31:01.203Z,20.60
2018-11-29T00:36:04.351Z,20.60
2018-11-29T00:41:07.526Z,20.60
2018-11-29T00:46:10.635Z,20.60
2018-11-29T00:51:13.743Z,20.60
2018-11-29T00:56:16.844Z,20.60
2018-11-29T01:01:19.948Z,20.60
2018-11-29T01:06:23.039Z,20.60
2018-11-29T01:11:26.149Z,20.60
2018-11-29T01:16:29.261Z,20.60
2018-11-29T01:21:32.379Z,20.60
2018-11-29T01:26:35.487Z,20.70
2018-11-29T01:31:38.700Z,20.60
2018-11-29T01:36:41.808Z,20.60
2018-11-29T01:41:45.020Z,20.60
2018-11-29T01:46:48.199Z,20.60
2018-11-29T01:51:51.336Z,20.60
2018-11-29T01:56:54.436Z,20.60
2018-11-29T02:01:57.660Z,20.60
2018-11-29T02:07:00.792Z,20.70
2018-11-29T02:12:03.908Z,20.70
2018-11-29T02:17:07.106Z,20.70
2018-11-29T02:22:10.275Z,20.70
2018-11-29T02:27:13.397Z,20.70
2018-11-29T02:32:15.923Z,20.80
2018-11-29T02:37:18.375Z,20.80
2018-11-29T02:42:21.496Z,20.80
2018-11-29T02:47:24.712Z,20.90
2018-11-29T02:52:27.872Z,21.00
2018-11-29T02:57:31.021Z,21.00
2018-11-29T03:02:34.145Z,20.90
2018-11-29T03:07:37.647Z,20.80
2018-11-29T03:12:41.042Z,20.80
2018-11-29T03:17:44.527Z,20.80
2018-11-29T03:22:47.679Z,20.80
2018-11-29T03:27:50.788Z,20.80
2018-11-29T03:32:53.998Z,20.80
2018-11-29T03:37:57.205Z,20.90
2018-11-29T03:43:00.327Z,20.90
2018-11-29T03:48:03.435Z,20.90
2018-11-29T03:53:06.631Z,20.90
2018-11-29T03:58:09.755Z,20.90
2018-11-29T04:03:12.963Z,20.80
2018-11-29T04:08:15.401Z,20.80
2018-11-29T04:13:17.906Z,20.80
2018-11-29T04:18:20.359Z,20.70
2018-11-29T04:23:22.819Z,20.60
2018-11-29T04:28:25.287Z,20.50
2018-11-29T04:33:27.751Z,20.50
2018-11-29T04:38:30.210Z,20.50
2018-11-29T04:43:32.699Z,20.40
2018-11-29T04:48:35.171Z,20.40
2018-11-29T04:53:37.636Z,20.40
2018-11-29T04:58:40.087Z,20.40
2018-11-29T05:03:42.541Z,20.40
2018-11-29T05:08:45.006Z,20.40
2018-11-29T05:13:47.469Z,20.40
2018-11-29T05:18:49.914Z,20.40
2018-11-29T05:23:52.352Z,20.40
2018-11-29T05:28:54.783Z,20.40
2018-11-29T05:33:57.223Z,20.40
2018-11-29T05:38:59.658Z,20.40
2018-11-29T05:44:02.103Z,20.40
2018-11-29T05:49:04.572Z,20.60
2018-11-29T05:54:07.070Z,20.60
2018-11-29T05:59:09.562Z,20.70
2018-11-29T06:04:12.022Z,20.70
2018-11-29T06:09:14.463Z,20.70
2018-11-29T06:14:23.476Z,20.70
2018-11-29T06:19:25.934Z,20.80
2018-11-29T06:24:28.503Z,20.80
2018-11-29T06:29:30.959Z,20.80
2018-11-29T06:34:33.415Z,20.80
2018-11-29T06:39:35.881Z,20.70
2018-11-29T06:44:38.374Z,20.70
2018-11-29T06:49:40.831Z,20.70
2018-11-29T06:54:43.294Z,20.70
2018-11-29T06:59:45.758Z,20.70
2018-11-29T07:04:48.220Z,20.70
2018-11-29T07:09:50.719Z,20.70
2018-11-29T07:14:53.215Z,20.70
2018-11-29T07:19:55.691Z,20.70
2018-11-29T07:24:58.158Z,20.80
2018-11-29T07:30:00.619Z,20.80
2018-11-29T07:35:03.078Z,20.80
2018-11-29T07:40:06.835Z,20.80
2018-11-29T07:45:10.044Z,20.80
2018-11-29T07:50:16.056Z,20.80
2018-11-29T07:55:19.011Z,20.80
2018-11-29T08:00:21.527Z,20.70
2018-11-29T08:05:23.985Z,20.80
2018-11-29T08:10:26.443Z,20.80
2018-11-29T08:15:28.926Z,20.80
2018-11-29T08:20:31.369Z,20.80
2018-11-29T08:25:33.817Z,20.80
2018-11-29T08:30:36.273Z,20.80
2018-11-29T08:35:38.710Z,20.80
2018-11-29T08:40:41.219Z,20.80
2018-11-29T08:45:43.660Z,20.80
2018-11-29T08:50:46.126Z,20.80
2018-11-29T08:55:48.599Z,20.80
2018-11-29T09:00:51.081Z,20.80
2018-11-29T09:05:53.538Z,20.80
2018-11-29T09:10:55.990Z,20.80
2018-11-29T09:15:58.474Z,20.80
2018-11-29T09:21:00.943Z,20.80
2018-11-29T09:26:03.407Z,20.80
2018-11-29T09:31:05.872Z,20.80
2018-11-29T09:36:08.318Z,20.90
2018-11-29T09:41:10.782Z,20.90
2018-11-29T09:46:13.255Z,20.90
2018-11-29T09:51:15.712Z,20.90
2018-11-29T09:56:18.171Z,20.90
2018-11-29T10:01:20.626Z,20.90
2018-11-29T10:06:23.100Z,20.90
2018-11-29T10:11:25.579Z,20.90
2018-11-29T10:16:28.050Z,20.90
2018-11-29T10:21:30.578Z,20.90
2018-11-29T10:26:33.043Z,20.80
2018-11-29T10:31:35.507Z,20.90
2018-11-29T10:36:37.998Z,20.90
2018-11-29T10:41:40.470Z,20.90
2018-11-29T10:46:42.943Z,20.90
2018-11-29T10:51:45.407Z,20.90
2018-11-29T10:56:47.927Z,20.90
2018-11-29T11:01:55.992Z,20.90
2018-11-29T11:06:58.446Z,20.90
2018-11-29T11:12:00.911Z,20.90
2018-11-29T11:17:03.375Z,20.90
2018-11-29T11:22:05.836Z,20.90
2018-11-29T11:27:08.295Z,20.90
2018-11-29T11:32:10.755Z,20.90
2018-11-29T11:37:13.219Z,20.90
2018-11-29T11:42:15.679Z,20.90
2018-11-29T11:47:18.131Z,20.90
2018-11-29T11:52:20.655Z,20.90
2018-11-29T11:57:23.115Z,21.00
2018-11-29T12:02:27.510Z,21.00
2018-11-29T12:07:28.042Z,21.00
2018-11-29T12:12:30.568Z,21.00
2018-11-29T12:17:33.039Z,21.00
2018-11-29T12:22:35.508Z,20.90
2018-11-29T12:27:37.974Z,20.90
2018-11-29T12:32:40.431Z,20.90
2018-11-29T12:37:42.882Z,20.90
2018-11-29T12:42:45.335Z,20.90
2018-11-29T12:47:47.803Z,20.90
2018-11-29T12:52:50.262Z,20.90
2018-11-29T12:58:04.575Z,20.90
2018-11-29T13:02:57.862Z,20.90
2018-11-29T13:08:00.315Z,20.90
2018-11-29T13:13:02.955Z,20.90
2018-11-29T13:18:06.258Z,20.90
2018-11-29T13:23:08.712Z,20.90
2018-11-29T13:28:11.171Z,20.90
2018-11-29T13:33:13.623Z,20.90
2018-11-29T13:38:16.431Z,20.90
2018-11-29T13:43:18.895Z,20.90
2018-11-29T13:48:21.368Z,20.90
2018-11-29T13:53:23.892Z,20.90
2018-11-29T13:58:26.351Z,20.90
2018-11-29T14:03:28.812Z,20.90
2018-11-29T14:08:31.262Z,20.90
2018-11-29T14:13:33.823Z,20.90
2018-11-29T14:18:36.277Z,20.90
2018-11-29T14:23:38.741Z,20.90
2018-11-29T14:28:41.203Z,20.90
2018-11-29T14:33:43.662Z,20.90
2018-11-29T14:38:46.126Z,21.00
2018-11-29T14:43:48.578Z,20.90
2018-11-29T14:48:51.036Z,20.90
2018-11-29T14:53:53.491Z,20.90
2018-11-29T14:58:56.000Z,21.00
2018-11-29T15:03:59.231Z,21.00
2018-11-29T15:09:02.802Z,21.00
2018-11-29T15:14:06.031Z,21.00
2018-11-29T15:19:09.319Z,21.00
2018-11-29T15:24:12.496Z,20.90
2018-11-29T15:29:15.664Z,20.90
2018-11-29T15:34:18.891Z,20.90
2018-11-29T15:39:22.246Z,20.90
2018-11-29T15:44:25.426Z,20.90
2018-11-29T15:49:28.632Z,20.90
2018-11-29T15:54:31.888Z,20.90
2018-11-29T15:59:35.067Z,21.10
2018-11-29T16:04:38.269Z,21.00
2018-11-29T16:09:41.519Z,20.90
2018-11-29T16:14:44.063Z,20.90
2018-11-29T16:19:46.519Z,20.70
2018-11-29T16:24:48.978Z,20.90
2018-11-29T16:29:51.543Z,20.90
2018-11-29T16:34:54.002Z,20.90
2018-11-29T16:39:56.464Z,20.90
2018-11-29T16:44:59.011Z,20.80
2018-11-29T16:50:01.468Z,20.70
2018-11-29T16:55:04.210Z,20.60
2018-11-29T17:00:09.266Z,20.60
2018-11-29T17:05:12.174Z,20.60
2018-11-29T17:10:15.179Z,20.50
2018-11-29T17:15:17.983Z,20.50
2018-11-29T17:20:20.575Z,20.60
2018-11-29T17:25:23.033Z,20.50
2018-11-29T17:41:04.498Z,21.50
2018-11-29T17:46:07.619Z,20.70
2018-11-29T17:51:10.062Z,20.60
2018-11-29T17:56:12.515Z,21.10
2018-11-29T18:04:43.221Z,21.00
2018-11-29T18:09:45.764Z,21.10
2018-11-29T18:14:48.216Z,21.30
2018-11-29T18:19:50.699Z,21.40
2018-11-29T18:24:53.142Z,21.40
2018-11-29T18:29:55.599Z,21.30
2018-11-29T18:34:58.059Z,21.60
2018-11-29T18:40:00.524Z,21.70
2018-11-29T18:45:02.975Z,21.80
2018-11-29T18:50:06.658Z,21.90
2018-11-29T18:55:09.299Z,21.90
2018-11-29T19:00:13.390Z,22.00
2018-11-29T19:05:15.849Z,22.10
2018-11-29T19:10:19.469Z,22.10
2018-11-29T19:15:22.601Z,22.30
2018-11-29T19:20:25.061Z,22.10
2018-11-29T19:25:27.566Z,22.10
2018-11-29T19:34:20.992Z,22.10
2018-11-29T19:39:23.511Z,22.10
2018-11-29T19:44:25.951Z,22.10
2018-11-29T19:49:28.467Z,22.10
2018-11-29T19:54:30.931Z,22.00
2018-11-29T19:59:33.379Z,22.00
2018-11-29T20:04:35.951Z,22.00
2018-11-29T20:09:38.418Z,22.00
2018-11-29T20:14:40.932Z,21.90
2018-11-29T20:19:43.407Z,21.90
2018-11-29T20:24:45.919Z,21.90
2018-11-29T20:29:48.429Z,21.90
2018-11-29T20:34:50.899Z,21.90
2018-11-29T20:39:53.411Z,21.90
2018-11-29T20:44:56.071Z,21.90
2018-11-29T20:49:58.582Z,21.80
2018-11-29T20:55:01.071Z,21.90
2018-11-29T21:00:03.815Z,21.90
2018-11-29T21:05:07.315Z,21.90
2018-11-29T21:10:11.747Z,21.90
2018-11-29T21:15:14.218Z,21.90
2018-11-29T21:20:17.155Z,21.90
2018-11-29T21:25:20.350Z,21.90
2018-11-29T21:30:22.841Z,21.90
2018-11-29T21:35:25.294Z,21.90
2018-11-29T21:40:28.342Z,21.90
2018-11-29T21:45:30.988Z,21.90
2018-11-29T21:50:33.519Z,21.90
2018-11-29T21:55:36.006Z,21.90
2018-11-29T22:00:38.467Z,21.90
2018-11-29T22:05:40.998Z,21.90
2018-11-29T22:10:43.443Z,21.90
2018-11-29T22:15:45.891Z,22.00
2018-11-29T22:20:49.103Z,21.90
2018-11-29T22:25:51.728Z,22.00
2018-11-29T22:30:54.408Z,22.00
2018-11-29T22:35:56.859Z,22.00
2018-11-29T22:40:59.311Z,22.00
2018-11-29T22:46:01.771Z,22.00
2018-11-29T22:51:04.243Z,22.00
2018-11-29T22:56:06.690Z,21.90
2018-11-29T23:01:14.624Z,21.90
2018-11-29T23:06:17.079Z,21.90
2018-11-29T23:11:19.554Z,21.90
2018-11-29T23:16:22.031Z,21.90
2018-11-29T23:21:24.498Z,21.90
2018-11-29T23:26:27.309Z,21.90
2018-11-29T23:31:29.403Z,21.90
2018-11-29T23:36:31.863Z,21.90
2018-11-29T23:41:34.423Z,21.90
2018-11-29T23:46:36.893Z,21.90
2018-11-29T23:51:39.343Z,21.90
2018-11-29T23:56:41.875Z,21.90
